Pagrindinis puslapis
METAR-TAF:

METAR-TAF

Oro uostai :

Antofagasta, Čilė

platuma: 23-26S, ilguma: 070-26W, Aukštis: 135 m

Dabartinis oras

Ataskaita buvo paskelbta 54 minutes, ne 14:00 UTC
Vėjas 13 kt iš Pietų/Pietvakarių
Temperatūra 14°C
Drėgmė 72%
Slėgis 1020 hPa
Matomumas 10 km arba daugiau
Apsiniaukę ne aukštis 1900 ft

METAR: SCFA 251400Z 20013KT 9999 OVC019 14/09 Q1020 NOSIG

Laikas: 10:54 (14:54 UTC)

Prognozė

Ataskaita buvo paskelbta 4 valandos ir 18 minutes, ne 10:36 UTC
Prognozė galioja nuo 25 metu 12 UTC su 26 metu 12 UTC
Vėjas 7 kt iš Pietų/Pietvakarių
Matomumas 10 km arba daugiau
Su prošvaistėmis ne aukštis 2000 ft
Tapsmas
nuo 25 metu 15 UTC su 25 metu 17 UTC
Vėjas 17 kt iš Pietų/Pietvakarių
Išsisklaidę debesys ne aukštis 1500 ft
Tapsmas
nuo 25 metu 20 UTC su 25 metu 22 UTC
Apsiniaukę ne aukštis 1500 ft
Tapsmas
nuo 26 metu 01 UTC su 26 metu 03 UTC
Vėjas 7 kt iš Pietų/Pietvakarių

TAF: SCFA 251036Z 2512/2612 20007KT 9999 BKN020 TX15/2518Z TN13/2610Z BECMG 2515/2517 20017KT SCT015 BECMG 2520/2522 OVC015 BECMG 2601/2603 20007KT

Orai ataskaitas ir orų prognozės (METAR, TAF).

turimą stotys yra geltonos ir raudonos taškus žemėlapyje.

Perkelti pele per norėdami pamatyti stoties vardą.

Tada spustelėkite, norėdami matyti oro stebėjimo ir prognozės.

Norėdami pakeisti žemėlapį: spustelėkite ant žalios mygtukų su juodo kryžiaus žemyn,; žalią mygtuką su brūkšneliu, jei norite nutolinti; arba žalių rodyklių gretimoms žemėlapius.


METAR-TAF: